sensor_id;sensor_type;location;lat;lon;timestamp;pressure;altitude;pressure_sealevel;temperature;humidity
56737;BME280;42618;51.226;4.910;2022-09-03T00:00:50;49384.13;;;-146.94;40.67
56737;BME280;42618;51.226;4.910;2022-09-03T00:03:41;49384.13;;;-146.94;40.65
56737;BME280;42618;51.226;4.910;2022-09-03T00:06:16;49356.22;;;-146.94;40.86
56737;BME280;42618;51.226;4.910;2022-09-03T00:11:18;49378.16;;;-146.94;40.87
56737;BME280;42618;51.226;4.910;2022-09-03T00:13:56;49362.19;;;-146.94;41.14
56737;BME280;42618;51.226;4.910;2022-09-03T00:16:25;49412.03;;;-146.94;40.92
56737;BME280;42618;51.226;4.910;2022-09-03T00:18:59;49394.09;;;-146.94;41.26
56737;BME280;42618;51.226;4.910;2022-09-03T00:24:12;49372.16;;;-146.94;41.51
56737;BME280;42618;51.226;4.910;2022-09-03T00:26:44;49360.22;;;-146.94;41.29
56737;BME280;42618;51.226;4.910;2022-09-03T00:29:15;49380.13;;;-146.94;41.57
56737;BME280;42618;51.226;4.910;2022-09-03T00:31:46;49410.03;;;-146.94;41.66
56737;BME280;42618;51.226;4.910;2022-09-03T00:34:24;49372.16;;;-146.94;42.07
56737;BME280;42618;51.226;4.910;2022-09-03T00:36:52;49380.13;;;-146.94;42.21
56737;BME280;42618;51.226;4.910;2022-09-03T00:39:21;49368.19;;;-146.94;42.24
56737;BME280;42618;51.226;4.910;2022-09-03T00:50:35;49376.16;;;-146.94;42.79
56737;BME280;42618;51.226;4.910;2022-09-03T00:59:00;49380.13;;;-146.94;43.20
56737;BME280;42618;51.226;4.910;2022-09-03T01:01:40;49394.09;;;-146.94;43.18
56737;BME280;42618;51.226;4.910;2022-09-03T01:10:00;49406.06;;;-146.94;43.54
56737;BME280;42618;51.226;4.910;2022-09-03T01:13:02;49392.09;;;-146.94;43.52
56737;BME280;42618;51.226;4.910;2022-09-03T01:15:36;49388.13;;;-146.94;43.89
56737;BME280;42618;51.226;4.910;2022-09-03T01:29:16;49368.19;;;-146.94;44.08
56737;BME280;42618;51.226;4.910;2022-09-03T01:32:14;49404.06;;;-146.94;44.13
56737;BME280;42618;51.226;4.910;2022-09-03T01:34:58;49376.16;;;-146.94;44.34
56737;BME280;42618;51.226;4.910;2022-09-03T01:37:40;49408.06;;;-146.94;44.32
56737;BME280;42618;51.226;4.910;2022-09-03T01:45:54;49390.09;;;-146.94;44.52
56737;BME280;42618;51.226;4.910;2022-09-03T01:51:23;49396.09;;;-146.94;44.51
56737;BME280;42618;51.226;4.910;2022-09-03T01:54:08;49398.09;;;-146.94;44.78
56737;BME280;42618;51.226;4.910;2022-09-03T02:00:10;49396.09;;;-146.94;44.89
56737;BME280;42618;51.226;4.910;2022-09-03T02:02:41;49336.28;;;-146.94;45.06
56737;BME280;42618;51.226;4.910;2022-09-03T02:05:19;49429.97;;;-146.94;44.93
56737;BME280;42618;51.226;4.910;2022-09-03T02:08:01;49400.06;;;-146.94;45.19
56737;BME280;42618;51.226;4.910;2022-09-03T02:10:44;49394.09;;;-146.94;45.18
56737;BME280;42618;51.226;4.910;2022-09-03T02:13:24;49414.03;;;-146.94;45.11
56737;BME280;42618;51.226;4.910;2022-09-03T02:15:55;49384.13;;;-146.94;45.24
56737;BME280;42618;51.226;4.910;2022-09-03T02:18:26;49408.06;;;-146.94;45.50
56737;BME280;42618;51.226;4.910;2022-09-03T02:20:56;49410.03;;;-146.94;45.71
56737;BME280;42618;51.226;4.910;2022-09-03T02:23:25;49406.06;;;-146.94;45.61
56737;BME280;42618;51.226;4.910;2022-09-03T02:26:00;49386.13;;;-146.94;45.86
56737;BME280;42618;51.226;4.910;2022-09-03T02:28:28;49408.06;;;-146.94;45.99
56737;BME280;42618;51.226;4.910;2022-09-03T02:30:56;49416.03;;;-146.94;45.97
56737;BME280;42618;51.226;4.910;2022-09-03T02:33:23;49394.09;;;-146.94;46.39
56737;BME280;42618;51.226;4.910;2022-09-03T02:35:52;49382.13;;;-146.94;46.36
56737;BME280;42618;51.226;4.910;2022-09-03T02:38:24;49400.06;;;-146.94;46.36
56737;BME280;42618;51.226;4.910;2022-09-03T02:40:52;49410.03;;;-146.94;46.35
56737;BME280;42618;51.226;4.910;2022-09-03T02:43:41;49394.09;;;-146.94;46.51
56737;BME280;42618;51.226;4.910;2022-09-03T02:46:17;49420.00;;;-146.94;46.42
56737;BME280;42618;51.226;4.910;2022-09-03T02:48:46;49398.09;;;-146.94;46.76
56737;BME280;42618;51.226;4.910;2022-09-03T02:51:13;49424.00;;;-146.94;46.69
56737;BME280;42618;51.226;4.910;2022-09-03T02:53:41;49416.03;;;-146.94;46.51
56737;BME280;42618;51.226;4.910;2022-09-03T02:56:09;49408.06;;;-146.94;46.51
56737;BME280;42618;51.226;4.910;2022-09-03T02:58:36;49392.09;;;-146.94;46.38
56737;BME280;42618;51.226;4.910;2022-09-03T03:01:04;49412.03;;;-146.94;46.10
56737;BME280;42618;51.226;4.910;2022-09-03T03:03:31;49414.03;;;-146.94;46.18
56737;BME280;42618;51.226;4.910;2022-09-03T03:06:00;49412.03;;;-146.94;46.10
56737;BME280;42618;51.226;4.910;2022-09-03T03:08:28;49400.06;;;-146.94;45.97
56737;BME280;42618;51.226;4.910;2022-09-03T03:10:57;49400.06;;;-146.94;45.75
56737;BME280;42618;51.226;4.910;2022-09-03T03:13:25;49420.00;;;-146.94;45.57
56737;BME280;42618;51.226;4.910;2022-09-03T03:15:59;49356.22;;;-146.94;45.55
56737;BME280;42618;51.226;4.910;2022-09-03T03:18:28;49390.09;;;-146.94;45.54
56737;BME280;42618;51.226;4.910;2022-09-03T03:20:55;49390.09;;;-146.94;45.63
56737;BME280;42618;51.226;4.910;2022-09-03T03:23:21;49384.13;;;-146.94;45.78
56737;BME280;42618;51.226;4.910;2022-09-03T03:25:48;49368.19;;;-146.94;45.39
56737;BME280;42618;51.226;4.910;2022-09-03T03:28:15;49388.13;;;-146.94;45.54
56737;BME280;42618;51.226;4.910;2022-09-03T03:30:44;49414.03;;;-146.94;45.55
56737;BME280;42618;51.226;4.910;2022-09-03T03:33:14;49408.06;;;-146.94;45.76
56737;BME280;42618;51.226;4.910;2022-09-03T03:35:41;49400.06;;;-146.94;45.65
56737;BME280;42618;51.226;4.910;2022-09-03T03:38:08;49414.03;;;-146.94;45.79
56737;BME280;42618;51.226;4.910;2022-09-03T03:40:39;49382.13;;;-146.94;45.86
56737;BME280;42618;51.226;4.910;2022-09-03T03:43:06;49390.09;;;-146.94;45.59
56737;BME280;42618;51.226;4.910;2022-09-03T03:45:32;49441.94;;;-146.94;45.81
56737;BME280;42618;51.226;4.910;2022-09-03T03:47:59;49451.91;;;-146.94;45.72
56737;BME280;42618;51.226;4.910;2022-09-03T03:50:26;49386.13;;;-146.94;45.91
56737;BME280;42618;51.226;4.910;2022-09-03T03:52:53;49400.06;;;-146.94;45.70
56737;BME280;42618;51.226;4.910;2022-09-03T03:55:20;49388.13;;;-146.94;45.72
56737;BME280;42618;51.226;4.910;2022-09-03T03:57:47;49384.13;;;-146.94;45.98
56737;BME280;42618;51.226;4.910;2022-09-03T04:00:14;49418.00;;;-146.94;45.80
56737;BME280;42618;51.226;4.910;2022-09-03T04:02:41;49424.00;;;-146.94;45.76
56737;BME280;42618;51.226;4.910;2022-09-03T04:05:08;49420.00;;;-146.94;45.92
56737;BME280;42618;51.226;4.910;2022-09-03T04:07:36;49408.06;;;-146.94;45.73
56737;BME280;42618;51.226;4.910;2022-09-03T04:10:03;49388.13;;;-146.94;45.76
56737;BME280;42618;51.226;4.910;2022-09-03T04:12:30;49424.00;;;-146.94;45.69
56737;BME280;42618;51.226;4.910;2022-09-03T04:14:58;49380.13;;;-146.94;45.83
56737;BME280;42618;51.226;4.910;2022-09-03T04:17:25;49408.06;;;-146.94;45.82
56737;BME280;42618;51.226;4.910;2022-09-03T04:19:53;49400.06;;;-146.94;45.89
56737;BME280;42618;51.226;4.910;2022-09-03T04:22:19;49431.97;;;-146.94;45.93
56737;BME280;42618;51.226;4.910;2022-09-03T04:24:46;49431.97;;;-146.94;46.01
56737;BME280;42618;51.226;4.910;2022-09-03T04:27:13;49394.09;;;-146.94;46.04
56737;BME280;42618;51.226;4.910;2022-09-03T04:29:39;49408.06;;;-146.94;45.99
56737;BME280;42618;51.226;4.910;2022-09-03T04:32:06;49412.03;;;-146.94;46.00
56737;BME280;42618;51.226;4.910;2022-09-03T04:34:52;49416.03;;;-146.94;45.94
56737;BME280;42618;51.226;4.910;2022-09-03T04:37:18;49424.00;;;-146.94;46.17
56737;BME280;42618;51.226;4.910;2022-09-03T04:39:45;49414.03;;;-146.94;45.99
56737;BME280;42618;51.226;4.910;2022-09-03T04:42:12;49441.94;;;-146.94;46.15
56737;BME280;42618;51.226;4.910;2022-09-03T04:44:39;49382.13;;;-146.94;46.33
56737;BME280;42618;51.226;4.910;2022-09-03T04:47:06;49400.06;;;-146.94;46.41
56737;BME280;42618;51.226;4.910;2022-09-03T04:49:33;49382.13;;;-146.94;46.42
56737;BME280;42618;51.226;4.910;2022-09-03T04:52:01;49424.00;;;-146.94;46.49
56737;BME280;42618;51.226;4.910;2022-09-03T04:54:28;49404.06;;;-146.94;46.65
56737;BME280;42618;51.226;4.910;2022-09-03T04:56:55;49384.13;;;-146.94;46.81
56737;BME280;42618;51.226;4.910;2022-09-03T04:59:22;49439.94;;;-146.94;47.15
56737;BME280;42618;51.226;4.910;2022-09-03T05:01:48;49390.09;;;-146.94;47.44
56737;BME280;42618;51.226;4.910;2022-09-03T05:04:18;49420.00;;;-146.94;47.30
56737;BME280;42618;51.226;4.910;2022-09-03T05:06:45;49396.09;;;-146.94;47.49
56737;BME280;42618;51.226;4.910;2022-09-03T05:09:12;49416.03;;;-146.94;47.55
56737;BME280;42618;51.226;4.910;2022-09-03T05:11:38;49412.03;;;-146.94;47.69
56737;BME280;42618;51.226;4.910;2022-09-03T05:14:05;49445.94;;;-146.94;48.04
56737;BME280;42618;51.226;4.910;2022-09-03T05:16:32;49378.16;;;-146.94;48.15
56737;BME280;42618;51.226;4.910;2022-09-03T05:18:59;49386.13;;;-146.94;48.00
56737;BME280;42618;51.226;4.910;2022-09-03T05:21:27;49445.94;;;-146.94;47.85
56737;BME280;42618;51.226;4.910;2022-09-03T05:23:54;49449.91;;;-146.94;47.90
56737;BME280;42618;51.226;4.910;2022-09-03T05:26:26;49416.03;;;-146.94;48.03
56737;BME280;42618;51.226;4.910;2022-09-03T05:29:01;49416.03;;;-146.94;48.06
56737;BME280;42618;51.226;4.910;2022-09-03T05:31:30;49392.09;;;-146.94;48.29
56737;BME280;42618;51.226;4.910;2022-09-03T05:33:58;49418.00;;;-146.94;48.26
56737;BME280;42618;51.226;4.910;2022-09-03T05:36:28;49392.09;;;-146.94;48.26
56737;BME280;42618;51.226;4.910;2022-09-03T05:38:56;49400.06;;;-146.94;48.74
56737;BME280;42618;51.226;4.910;2022-09-03T05:41:25;49414.03;;;-146.94;48.79
56737;BME280;42618;51.226;4.910;2022-09-03T05:43:53;49418.00;;;-146.94;49.03
56737;BME280;42618;51.226;4.910;2022-09-03T05:46:22;49390.09;;;-146.94;49.19
56737;BME280;42618;51.226;4.910;2022-09-03T05:48:59;49439.94;;;-146.94;49.40
56737;BME280;42618;51.226;4.910;2022-09-03T05:51:27;49400.06;;;-146.94;49.43
56737;BME280;42618;51.226;4.910;2022-09-03T05:53:54;49412.03;;;-146.94;49.48
56737;BME280;42618;51.226;4.910;2022-09-03T05:56:23;49424.00;;;-146.94;49.62
56737;BME280;42618;51.226;4.910;2022-09-03T05:58:52;49412.03;;;-146.94;49.30
56737;BME280;42618;51.226;4.910;2022-09-03T06:01:28;49431.97;;;-146.94;49.30
56737;BME280;42618;51.226;4.910;2022-09-03T06:03:56;49384.13;;;-146.94;49.24
56737;BME280;42618;51.226;4.910;2022-09-03T06:06:25;49420.00;;;-146.94;49.32
56737;BME280;42618;51.226;4.910;2022-09-03T06:09:00;49390.09;;;-146.94;49.26
56737;BME280;42618;51.226;4.910;2022-09-03T06:11:31;49406.06;;;-146.94;49.18
56737;BME280;42618;51.226;4.910;2022-09-03T06:13:59;49404.06;;;-146.94;49.11
56737;BME280;42618;51.226;4.910;2022-09-03T06:16:28;49431.97;;;-146.94;48.79
56737;BME280;42618;51.226;4.910;2022-09-03T06:19:00;49408.06;;;-146.94;48.90
56737;BME280;42618;51.226;4.910;2022-09-03T06:21:28;49431.97;;;-146.94;48.25
56737;BME280;42618;51.226;4.910;2022-09-03T06:23:56;49412.03;;;-146.94;47.94
56737;BME280;42618;51.226;4.910;2022-09-03T06:26:26;49445.94;;;-146.94;48.01
56737;BME280;42618;51.226;4.910;2022-09-03T06:28:56;49400.06;;;-146.94;47.93
56737;BME280;42618;51.226;4.910;2022-09-03T06:31:24;49372.16;;;-146.94;47.58
56737;BME280;42618;51.226;4.910;2022-09-03T06:33:51;49376.16;;;-146.94;47.30
56737;BME280;42618;51.226;4.910;2022-09-03T06:36:19;49416.03;;;-146.94;47.26
56737;BME280;42618;51.226;4.910;2022-09-03T06:38:46;49396.09;;;-146.94;47.43
56737;BME280;42618;51.226;4.910;2022-09-03T06:41:15;49388.13;;;-146.94;47.11
56737;BME280;42618;51.226;4.910;2022-09-03T06:43:47;49396.09;;;-146.94;47.44
56737;BME280;42618;51.226;4.910;2022-09-03T06:46:17;49414.03;;;-146.94;47.07
56737;BME280;42618;51.226;4.910;2022-09-03T06:48:44;49396.09;;;-146.94;47.20
56737;BME280;42618;51.226;4.910;2022-09-03T06:51:15;49404.06;;;-146.94;46.94
56737;BME280;42618;51.226;4.910;2022-09-03T06:54:08;49424.00;;;-146.94;46.78
56737;BME280;42618;51.226;4.910;2022-09-03T06:56:34;49398.09;;;-146.94;46.72
56737;BME280;42618;51.226;4.910;2022-09-03T06:59:08;49384.13;;;-146.94;46.38
56737;BME280;42618;51.226;4.910;2022-09-03T07:01:35;49404.06;;;-146.94;46.32
56737;BME280;42618;51.226;4.910;2022-09-03T07:04:06;49402.06;;;-146.94;46.08
56737;BME280;42618;51.226;4.910;2022-09-03T07:06:35;49388.13;;;-146.94;46.39
56737;BME280;42618;51.226;4.910;2022-09-03T07:09:05;49412.03;;;-146.94;45.91
56737;BME280;42618;51.226;4.910;2022-09-03T07:11:33;49404.06;;;-146.94;45.77
56737;BME280;42618;51.226;4.910;2022-09-03T07:14:02;49396.09;;;-146.94;45.71
56737;BME280;42618;51.226;4.910;2022-09-03T07:16:33;49374.16;;;-146.94;45.57
56737;BME280;42618;51.226;4.910;2022-09-03T07:19:01;49382.13;;;-146.94;45.36
56737;BME280;42618;51.226;4.910;2022-09-03T07:21:32;49396.09;;;-146.94;44.82
56737;BME280;42618;51.226;4.910;2022-09-03T07:24:13;49400.06;;;-146.94;45.23
56737;BME280;42618;51.226;4.910;2022-09-03T07:26:41;49378.16;;;-146.94;45.11
56737;BME280;42618;51.226;4.910;2022-09-03T07:29:15;49414.03;;;-146.94;44.68
56737;BME280;42618;51.226;4.910;2022-09-03T07:31:45;49352.22;;;-146.94;44.75
56737;BME280;42618;51.226;4.910;2022-09-03T07:34:12;49384.13;;;-146.94;45.05
56737;BME280;42618;51.226;4.910;2022-09-03T07:36:44;49376.16;;;-146.94;44.46
56737;BME280;42618;51.226;4.910;2022-09-03T07:39:17;49358.22;;;-146.94;44.42
56737;BME280;42618;51.226;4.910;2022-09-03T07:41:44;49390.09;;;-146.94;44.38
56737;BME280;42618;51.226;4.910;2022-09-03T07:44:16;49374.16;;;-146.94;44.36
56737;BME280;42618;51.226;4.910;2022-09-03T07:46:45;49374.16;;;-146.94;43.87
56737;BME280;42618;51.226;4.910;2022-09-03T07:49:13;49376.16;;;-146.94;43.84
56737;BME280;42618;51.226;4.910;2022-09-03T07:51:40;49394.09;;;-146.94;43.52
56737;BME280;42618;51.226;4.910;2022-09-03T07:54:09;49372.16;;;-146.94;43.70
56737;BME280;42618;51.226;4.910;2022-09-03T07:56:38;49354.22;;;-146.94;43.16
56737;BME280;42618;51.226;4.910;2022-09-03T07:59:06;49404.06;;;-146.94;43.16
56737;BME280;42618;51.226;4.910;2022-09-03T08:01:33;49376.16;;;-146.94;42.50
56737;BME280;42618;51.226;4.910;2022-09-03T08:04:01;49370.19;;;-146.94;41.89
56737;BME280;42618;51.226;4.910;2022-09-03T08:06:29;49404.06;;;-146.94;41.68
56737;BME280;42618;51.226;4.910;2022-09-03T08:08:59;49352.22;;;-146.94;41.84
56737;BME280;42618;51.226;4.910;2022-09-03T08:11:32;49360.22;;;-146.94;41.77
56737;BME280;42618;51.226;4.910;2022-09-03T08:14:05;49374.16;;;-146.94;41.71
56737;BME280;42618;51.226;4.910;2022-09-03T08:16:35;49390.09;;;-146.94;41.00
56737;BME280;42618;51.226;4.910;2022-09-03T08:19:03;49368.19;;;-146.94;41.23
56737;BME280;42618;51.226;4.910;2022-09-03T08:21:30;49336.28;;;-146.94;40.73
56737;BME280;42618;51.226;4.910;2022-09-03T08:23:56;49356.22;;;-146.94;39.71
56737;BME280;42618;51.226;4.910;2022-09-03T08:26:32;49376.16;;;-146.94;39.78
56737;BME280;42618;51.226;4.910;2022-09-03T08:28:59;49390.09;;;-146.94;39.86
56737;BME280;42618;51.226;4.910;2022-09-03T08:31:27;49380.13;;;-146.94;39.86
56737;BME280;42618;51.226;4.910;2022-09-03T08:33:56;49370.19;;;-146.94;39.80
56737;BME280;42618;51.226;4.910;2022-09-03T08:36:25;49348.25;;;-146.94;39.04
56737;BME280;42618;51.226;4.910;2022-09-03T08:38:53;49356.22;;;-146.94;39.35
56737;BME280;42618;51.226;4.910;2022-09-03T08:41:34;49372.16;;;-146.94;39.06
56737;BME280;42618;51.226;4.910;2022-09-03T08:44:24;49348.25;;;-146.94;39.42
56737;BME280;42618;51.226;4.910;2022-09-03T08:52:45;49352.22;;;-146.94;38.33
56737;BME280;42618;51.226;4.910;2022-09-03T08:55:36;49334.28;;;-146.94;37.91
56737;BME280;42618;51.226;4.910;2022-09-03T08:58:13;49358.22;;;-146.94;37.54
56737;BME280;42618;51.226;4.910;2022-09-03T09:00:52;49348.25;;;-146.94;37.60
56737;BME280;42618;51.226;4.910;2022-09-03T09:14:38;49360.22;;;-146.94;36.88
56737;BME280;42618;51.226;4.910;2022-09-03T09:23:04;49294.44;;;-146.94;36.98
56737;BME280;42618;51.226;4.910;2022-09-03T09:25:33;49352.22;;;-146.94;36.87
56737;BME280;42618;51.226;4.910;2022-09-03T09:28:19;49328.31;;;-146.94;37.28
56737;BME280;42618;51.226;4.910;2022-09-03T09:30:49;49320.34;;;-146.94;36.93
56737;BME280;42618;51.226;4.910;2022-09-03T09:33:18;49306.38;;;-146.94;36.92
56737;BME280;42618;51.226;4.910;2022-09-03T09:35:46;49356.22;;;-146.94;37.11
56737;BME280;42618;51.226;4.910;2022-09-03T09:38:14;49332.31;;;-146.94;37.02
56737;BME280;42618;51.226;4.910;2022-09-03T09:40:43;49308.38;;;-146.94;37.06
56737;BME280;42618;51.226;4.910;2022-09-03T09:43:16;49340.28;;;-146.94;37.56
56737;BME280;42618;51.226;4.910;2022-09-03T09:45:49;49356.22;;;-146.94;37.96
56737;BME280;42618;51.226;4.910;2022-09-03T09:48:26;49346.25;;;-146.94;37.32
56737;BME280;42618;51.226;4.910;2022-09-03T09:51:09;49320.34;;;-146.94;37.38
56737;BME280;42618;51.226;4.910;2022-09-03T09:53:38;49328.31;;;-146.94;37.34
56737;BME280;42618;51.226;4.910;2022-09-03T09:56:05;49334.28;;;-146.94;37.80
56737;BME280;42618;51.226;4.910;2022-09-03T09:58:33;49310.38;;;-146.94;37.43
56737;BME280;42618;51.226;4.910;2022-09-03T10:01:04;49324.31;;;-146.94;36.26
56737;BME280;42618;51.226;4.910;2022-09-03T10:03:52;49328.31;;;-146.94;36.58
56737;BME280;42618;51.226;4.910;2022-09-03T10:06:26;49362.19;;;-146.94;37.04
56737;BME280;42618;51.226;4.910;2022-09-03T10:09:14;49280.47;;;-146.94;36.96
56737;BME280;42618;51.226;4.910;2022-09-03T10:11:47;49362.19;;;-146.94;37.53
56737;BME280;42618;51.226;4.910;2022-09-03T10:14:28;49364.19;;;-146.94;37.44
56737;BME280;42618;51.226;4.910;2022-09-03T10:22:54;49332.31;;;-146.94;37.54
56737;BME280;42618;51.226;4.910;2022-09-03T10:25:32;49346.25;;;-146.94;37.51
56737;BME280;42618;51.226;4.910;2022-09-03T10:28:06;49350.25;;;-146.94;38.64
56737;BME280;42618;51.226;4.910;2022-09-03T10:31:06;49340.28;;;-146.94;38.24
56737;BME280;42618;51.226;4.910;2022-09-03T10:33:45;49322.34;;;-146.94;38.21
56737;BME280;42618;51.226;4.910;2022-09-03T10:36:22;49322.34;;;-146.94;38.22
56737;BME280;42618;51.226;4.910;2022-09-03T10:45:22;49298.41;;;-146.94;37.17
56737;BME280;42618;51.226;4.910;2022-09-03T10:48:06;49322.34;;;-146.94;37.70
56737;BME280;42618;51.226;4.910;2022-09-03T10:50:47;49292.44;;;-146.94;37.64
56737;BME280;42618;51.226;4.910;2022-09-03T10:59:05;49324.31;;;-146.94;37.76
56737;BME280;42618;51.226;4.910;2022-09-03T11:07:22;49316.34;;;-146.94;37.29
56737;BME280;42618;51.226;4.910;2022-09-03T11:09:59;49276.50;;;-146.94;36.46
56737;BME280;42618;51.226;4.910;2022-09-03T11:15:34;49292.44;;;-146.94;37.11
56737;BME280;42618;51.226;4.910;2022-09-03T11:18:16;49276.50;;;-146.94;36.50
56737;BME280;42618;51.226;4.910;2022-09-03T11:20:46;49292.44;;;-146.94;35.83
56737;BME280;42618;51.226;4.910;2022-09-03T11:23:15;49260.53;;;-146.94;36.40
56737;BME280;42618;51.226;4.910;2022-09-03T11:25:50;49308.38;;;-146.94;36.29
56737;BME280;42618;51.226;4.910;2022-09-03T11:28:43;49270.50;;;-146.94;36.29
56737;BME280;42618;51.226;4.910;2022-09-03T11:33:58;49284.47;;;-146.94;36.27
56737;BME280;42618;51.226;4.910;2022-09-03T11:36:30;49292.44;;;-146.94;36.43
56737;BME280;42618;51.226;4.910;2022-09-03T11:38:57;49276.50;;;-146.94;35.92
56737;BME280;42618;51.226;4.910;2022-09-03T11:41:29;49272.50;;;-146.94;36.61
56737;BME280;42618;51.226;4.910;2022-09-03T11:44:16;49246.59;;;-146.94;35.88
56737;BME280;42618;51.226;4.910;2022-09-03T11:46:54;49280.47;;;-146.94;35.54
56737;BME280;42618;51.226;4.910;2022-09-03T11:49:30;49272.50;;;-146.94;35.17
56737;BME280;42618;51.226;4.910;2022-09-03T11:52:01;49278.47;;;-146.94;35.32
56737;BME280;42618;51.226;4.910;2022-09-03T11:54:31;49262.53;;;-146.94;35.00
56737;BME280;42618;51.226;4.910;2022-09-03T11:57:28;49268.50;;;-146.94;35.39
56737;BME280;42618;51.226;4.910;2022-09-03T12:00:14;49272.50;;;-146.94;35.39
56737;BME280;42618;51.226;4.910;2022-09-03T12:02:49;49280.47;;;-146.94;34.40
56737;BME280;42618;51.226;4.910;2022-09-03T12:05:35;49252.56;;;-146.94;33.80
56737;BME280;42618;51.226;4.910;2022-09-03T12:17:18;49292.44;;;-146.94;34.84
56737;BME280;42618;51.226;4.910;2022-09-03T12:19:55;49260.53;;;-146.94;34.45
56737;BME280;42618;51.226;4.910;2022-09-03T12:22:25;49268.50;;;-146.94;34.44
56737;BME280;42618;51.226;4.910;2022-09-03T12:24:53;49266.53;;;-146.94;34.50
56737;BME280;42618;51.226;4.910;2022-09-03T12:27:23;49240.59;;;-146.94;34.20
56737;BME280;42618;51.226;4.910;2022-09-03T12:30:01;49280.47;;;-146.94;33.50
56737;BME280;42618;51.226;4.910;2022-09-03T12:32:35;49242.59;;;-146.94;33.11
56737;BME280;42618;51.226;4.910;2022-09-03T12:35:17;49280.47;;;-146.94;32.87
56737;BME280;42618;51.226;4.910;2022-09-03T12:38:04;49236.63;;;-146.94;32.39
56737;BME280;42618;51.226;4.910;2022-09-03T12:40:41;49246.59;;;-146.94;32.42
56737;BME280;42618;51.226;4.910;2022-09-03T12:43:28;49244.59;;;-146.94;32.60
56737;BME280;42618;51.226;4.910;2022-09-03T12:46:04;49236.63;;;-146.94;31.92
56737;BME280;42618;51.226;4.910;2022-09-03T12:48:36;49236.63;;;-146.94;31.93
56737;BME280;42618;51.226;4.910;2022-09-03T12:51:08;49230.63;;;-146.94;31.55
56737;BME280;42618;51.226;4.910;2022-09-03T12:53:55;49252.56;;;-146.94;31.23
56737;BME280;42618;51.226;4.910;2022-09-03T12:56:22;49230.63;;;-146.94;30.98
56737;BME280;42618;51.226;4.910;2022-09-03T12:58:58;49262.53;;;-146.94;30.75
56737;BME280;42618;51.226;4.910;2022-09-03T13:01:35;49252.56;;;-146.94;30.91
56737;BME280;42618;51.226;4.910;2022-09-03T13:04:10;49282.47;;;-146.94;31.77
56737;BME280;42618;51.226;4.910;2022-09-03T13:06:52;49276.50;;;-146.94;32.50
56737;BME280;42618;51.226;4.910;2022-09-03T13:09:23;49252.56;;;-146.94;33.35
56737;BME280;42618;51.226;4.910;2022-09-03T13:11:51;49310.38;;;-146.94;32.84
56737;BME280;42618;51.226;4.910;2022-09-03T13:14:21;49310.38;;;-146.94;33.47
56737;BME280;42618;51.226;4.910;2022-09-03T13:22:05;49278.47;;;-146.94;35.10
56737;BME280;42618;51.226;4.910;2022-09-03T13:30:18;49256.56;;;-146.94;32.50
56737;BME280;42618;51.226;4.910;2022-09-03T13:33:05;49280.47;;;-146.94;32.91
56737;BME280;42618;51.226;4.910;2022-09-03T13:35:46;49252.56;;;-146.94;33.48
56737;BME280;42618;51.226;4.910;2022-09-03T13:44:03;49252.56;;;-146.94;33.67
56737;BME280;42618;51.226;4.910;2022-09-03T13:46:53;49268.50;;;-146.94;33.92
56737;BME280;42618;51.226;4.910;2022-09-03T13:52:42;49290.44;;;-146.94;33.70
56737;BME280;42618;51.226;4.910;2022-09-03T13:55:20;49260.53;;;-146.94;33.28
56737;BME280;42618;51.226;4.910;2022-09-03T13:57:53;49268.50;;;-146.94;33.73
56737;BME280;42618;51.226;4.910;2022-09-03T14:00:42;49268.50;;;-146.94;33.72
56737;BME280;42618;51.226;4.910;2022-09-03T14:12:30;49276.50;;;-146.94;35.02
56737;BME280;42618;51.226;4.910;2022-09-03T14:15:22;49264.53;;;-146.94;34.96
56737;BME280;42618;51.226;4.910;2022-09-03T14:18:19;49262.53;;;-146.94;35.17
56737;BME280;42618;51.226;4.910;2022-09-03T14:21:06;49270.50;;;-146.94;34.91
56737;BME280;42618;51.226;4.910;2022-09-03T14:23:43;49210.72;;;-146.94;34.82
56737;BME280;42618;51.226;4.910;2022-09-03T14:26:35;49266.53;;;-146.94;34.40
56737;BME280;42618;51.226;4.910;2022-09-03T14:34:53;49268.50;;;-146.94;34.38
56737;BME280;42618;51.226;4.910;2022-09-03T14:37:33;49270.50;;;-146.94;34.32
56737;BME280;42618;51.226;4.910;2022-09-03T14:40:11;49248.59;;;-146.94;34.77
56737;BME280;42618;51.226;4.910;2022-09-03T14:42:52;49260.53;;;-146.94;35.05
56737;BME280;42618;51.226;4.910;2022-09-03T14:50:47;49270.50;;;-146.94;35.04
56737;BME280;42618;51.226;4.910;2022-09-03T15:00:23;49240.59;;;-146.94;33.96
56737;BME280;42618;51.226;4.910;2022-09-03T15:02:47;49276.50;;;-146.94;33.63
56737;BME280;42618;51.226;4.910;2022-09-03T15:08:19;49236.63;;;-146.94;33.10
56737;BME280;42618;51.226;4.910;2022-09-03T15:11:14;49196.75;;;-146.94;32.30
56737;BME280;42618;51.226;4.910;2022-09-03T15:13:46;49248.59;;;-146.94;32.84
56737;BME280;42618;51.226;4.910;2022-09-03T15:16:35;49250.56;;;-146.94;33.11
56737;BME280;42618;51.226;4.910;2022-09-03T15:19:15;49242.59;;;-146.94;33.29
56737;BME280;42618;51.226;4.910;2022-09-03T15:27:14;49248.59;;;-146.94;34.49
56737;BME280;42618;51.226;4.910;2022-09-03T15:29:57;49250.56;;;-146.94;34.78
56737;BME280;42618;51.226;4.910;2022-09-03T15:38:04;49280.47;;;-146.94;34.99
56737;BME280;42618;51.226;4.910;2022-09-03T15:40:36;49276.50;;;-146.94;35.77
56737;BME280;42618;51.226;4.910;2022-09-03T15:43:10;49290.44;;;-146.94;36.58
56737;BME280;42618;51.226;4.910;2022-09-03T15:48:43;49222.66;;;-146.94;34.37
56737;BME280;42618;51.226;4.910;2022-09-03T15:51:21;49144.94;;;-146.94;32.90
56737;BME280;42618;51.226;4.910;2022-09-03T15:54:09;49192.78;;;-146.94;31.86
56737;BME280;42618;51.226;4.910;2022-09-03T15:56:40;49170.84;;;-146.94;30.75
56737;BME280;42618;51.226;4.910;2022-09-03T15:59:27;49200.75;;;-146.94;30.59
56737;BME280;42618;51.226;4.910;2022-09-03T16:02:19;49160.88;;;-146.94;31.14
56737;BME280;42618;51.226;4.910;2022-09-03T16:05:17;49172.84;;;-146.94;30.66